sensor_id;sensor_type;location;lat;lon;timestamp;temperature;humidity
11991;DHT22;6055;52.522;13.446;2023-04-06T00:00:36;5.70;99.90
11991;DHT22;6055;52.522;13.446;2023-04-06T00:03:02;5.70;99.90
11991;DHT22;6055;52.522;13.446;2023-04-06T00:05:27;5.70;99.90
11991;DHT22;6055;52.522;13.446;2023-04-06T00:07:56;5.70;99.90
11991;DHT22;6055;52.522;13.446;2023-04-06T00:10:22;5.60;99.90
11991;DHT22;6055;52.522;13.446;2023-04-06T00:12:47;5.60;99.90
11991;DHT22;6055;52.522;13.446;2023-04-06T00:15:12;5.60;99.90
11991;DHT22;6055;52.522;13.446;2023-04-06T00:17:38;5.60;99.90
11991;DHT22;6055;52.522;13.446;2023-04-06T00:20:04;5.60;99.90
11991;DHT22;6055;52.522;13.446;2023-04-06T00:22:29;5.60;99.90
11991;DHT22;6055;52.522;13.446;2023-04-06T00:24:55;5.60;99.90
11991;DHT22;6055;52.522;13.446;2023-04-06T00:27:20;5.60;99.90
11991;DHT22;6055;52.522;13.446;2023-04-06T00:29:46;5.60;99.90
11991;DHT22;6055;52.522;13.446;2023-04-06T00:32:11;5.50;99.90
11991;DHT22;6055;52.522;13.446;2023-04-06T00:34:36;5.50;99.90
11991;DHT22;6055;52.522;13.446;2023-04-06T00:37:02;5.50;99.90
11991;DHT22;6055;52.522;13.446;2023-04-06T00:39:27;5.50;99.90
11991;DHT22;6055;52.522;13.446;2023-04-06T00:41:53;5.40;99.90
11991;DHT22;6055;52.522;13.446;2023-04-06T00:44:20;5.50;99.90
11991;DHT22;6055;52.522;13.446;2023-04-06T00:46:46;5.40;99.90
11991;DHT22;6055;52.522;13.446;2023-04-06T00:49:12;5.40;99.90
11991;DHT22;6055;52.522;13.446;2023-04-06T00:51:37;5.40;99.90
11991;DHT22;6055;52.522;13.446;2023-04-06T00:54:03;5.40;99.90
11991;DHT22;6055;52.522;13.446;2023-04-06T00:56:29;5.40;99.90
11991;DHT22;6055;52.522;13.446;2023-04-06T00:58:55;5.40;99.90
11991;DHT22;6055;52.522;13.446;2023-04-06T01:01:21;5.30;99.90
11991;DHT22;6055;52.522;13.446;2023-04-06T01:03:46;5.30;99.90
11991;DHT22;6055;52.522;13.446;2023-04-06T01:06:14;5.30;99.90
11991;DHT22;6055;52.522;13.446;2023-04-06T01:08:40;5.30;99.90
11991;DHT22;6055;52.522;13.446;2023-04-06T01:11:05;5.30;99.90
11991;DHT22;6055;52.522;13.446;2023-04-06T01:13:30;5.30;99.90
11991;DHT22;6055;52.522;13.446;2023-04-06T01:15:56;5.20;99.90
11991;DHT22;6055;52.522;13.446;2023-04-06T01:18:26;5.30;99.90
11991;DHT22;6055;52.522;13.446;2023-04-06T01:20:52;5.30;99.90
11991;DHT22;6055;52.522;13.446;2023-04-06T01:23:17;5.20;99.90
11991;DHT22;6055;52.522;13.446;2023-04-06T01:25:43;5.30;99.90
11991;DHT22;6055;52.522;13.446;2023-04-06T01:28:08;5.20;99.90
11991;DHT22;6055;52.522;13.446;2023-04-06T01:30:34;5.20;99.90
11991;DHT22;6055;52.522;13.446;2023-04-06T01:32:59;5.30;99.90
11991;DHT22;6055;52.522;13.446;2023-04-06T01:35:26;5.20;99.90
11991;DHT22;6055;52.522;13.446;2023-04-06T01:37:52;5.20;99.90
11991;DHT22;6055;52.522;13.446;2023-04-06T01:40:18;5.20;99.90
11991;DHT22;6055;52.522;13.446;2023-04-06T01:42:43;5.20;99.90
11991;DHT22;6055;52.522;13.446;2023-04-06T01:45:09;5.10;99.90
11991;DHT22;6055;52.522;13.446;2023-04-06T01:47:35;5.10;99.90
11991;DHT22;6055;52.522;13.446;2023-04-06T01:50:00;5.10;99.90
11991;DHT22;6055;52.522;13.446;2023-04-06T01:52:26;5.10;99.90
11991;DHT22;6055;52.522;13.446;2023-04-06T01:54:51;5.10;99.90
11991;DHT22;6055;52.522;13.446;2023-04-06T01:57:17;5.10;99.90
11991;DHT22;6055;52.522;13.446;2023-04-06T01:59:43;5.10;99.90
11991;DHT22;6055;52.522;13.446;2023-04-06T02:02:08;5.10;99.90
11991;DHT22;6055;52.522;13.446;2023-04-06T02:04:33;5.10;99.90
11991;DHT22;6055;52.522;13.446;2023-04-06T02:06:59;5.10;99.90
11991;DHT22;6055;52.522;13.446;2023-04-06T02:09:25;5.10;99.90
11991;DHT22;6055;52.522;13.446;2023-04-06T02:11:50;5.00;99.90
11991;DHT22;6055;52.522;13.446;2023-04-06T02:14:16;5.00;99.90
11991;DHT22;6055;52.522;13.446;2023-04-06T02:16:41;5.00;99.90
11991;DHT22;6055;52.522;13.446;2023-04-06T02:19:06;5.00;99.90
11991;DHT22;6055;52.522;13.446;2023-04-06T02:21:32;4.90;99.90
11991;DHT22;6055;52.522;13.446;2023-04-06T02:23:58;5.00;99.90
11991;DHT22;6055;52.522;13.446;2023-04-06T02:26:23;4.90;99.90
11991;DHT22;6055;52.522;13.446;2023-04-06T02:28:48;4.90;99.90
11991;DHT22;6055;52.522;13.446;2023-04-06T02:31:14;4.90;99.90
11991;DHT22;6055;52.522;13.446;2023-04-06T02:33:40;4.90;99.90
11991;DHT22;6055;52.522;13.446;2023-04-06T02:36:06;4.90;99.90
11991;DHT22;6055;52.522;13.446;2023-04-06T02:38:32;4.90;99.90
11991;DHT22;6055;52.522;13.446;2023-04-06T02:40:57;4.90;99.90
11991;DHT22;6055;52.522;13.446;2023-04-06T02:43:22;4.90;99.90
11991;DHT22;6055;52.522;13.446;2023-04-06T02:45:48;4.80;99.90
11991;DHT22;6055;52.522;13.446;2023-04-06T02:48:13;4.80;99.90
11991;DHT22;6055;52.522;13.446;2023-04-06T02:50:39;4.80;99.90
11991;DHT22;6055;52.522;13.446;2023-04-06T02:53:05;4.70;99.90
11991;DHT22;6055;52.522;13.446;2023-04-06T02:55:31;4.70;99.90
11991;DHT22;6055;52.522;13.446;2023-04-06T02:57:56;4.70;99.90
11991;DHT22;6055;52.522;13.446;2023-04-06T03:00:22;4.70;99.90
11991;DHT22;6055;52.522;13.446;2023-04-06T03:02:47;4.60;99.90
11991;DHT22;6055;52.522;13.446;2023-04-06T03:05:12;4.60;99.90
11991;DHT22;6055;52.522;13.446;2023-04-06T03:07:38;4.50;99.90
11991;DHT22;6055;52.522;13.446;2023-04-06T03:10:04;4.50;99.90
11991;DHT22;6055;52.522;13.446;2023-04-06T03:12:30;4.40;99.90
11991;DHT22;6055;52.522;13.446;2023-04-06T03:14:55;4.40;99.90
11991;DHT22;6055;52.522;13.446;2023-04-06T03:17:20;4.40;99.90
11991;DHT22;6055;52.522;13.446;2023-04-06T03:19:46;4.30;99.90
11991;DHT22;6055;52.522;13.446;2023-04-06T03:22:11;4.30;99.90
11991;DHT22;6055;52.522;13.446;2023-04-06T03:24:37;4.20;99.90
11991;DHT22;6055;52.522;13.446;2023-04-06T03:27:02;4.20;99.90
11991;DHT22;6055;52.522;13.446;2023-04-06T03:29:28;4.10;99.90
11991;DHT22;6055;52.522;13.446;2023-04-06T03:31:53;4.10;99.90
11991;DHT22;6055;52.522;13.446;2023-04-06T03:34:19;4.10;99.90
11991;DHT22;6055;52.522;13.446;2023-04-06T03:36:45;4.10;99.90
11991;DHT22;6055;52.522;13.446;2023-04-06T03:39:10;4.10;99.90
11991;DHT22;6055;52.522;13.446;2023-04-06T03:41:36;4.00;99.90
11991;DHT22;6055;52.522;13.446;2023-04-06T03:44:01;4.00;99.90
11991;DHT22;6055;52.522;13.446;2023-04-06T03:46:27;4.00;99.90
11991;DHT22;6055;52.522;13.446;2023-04-06T03:48:52;3.90;99.90
11991;DHT22;6055;52.522;13.446;2023-04-06T03:51:17;3.90;99.90
11991;DHT22;6055;52.522;13.446;2023-04-06T03:53:43;3.90;99.90
11991;DHT22;6055;52.522;13.446;2023-04-06T03:56:08;3.90;99.90
11991;DHT22;6055;52.522;13.446;2023-04-06T03:58:34;3.90;99.90
11991;DHT22;6055;52.522;13.446;2023-04-06T04:00:59;3.80;99.90
11991;DHT22;6055;52.522;13.446;2023-04-06T04:03:25;3.80;99.90
11991;DHT22;6055;52.522;13.446;2023-04-06T04:05:53;3.80;99.90
11991;DHT22;6055;52.522;13.446;2023-04-06T04:08:18;3.80;99.90
11991;DHT22;6055;52.522;13.446;2023-04-06T04:10:43;3.80;99.90
11991;DHT22;6055;52.522;13.446;2023-04-06T04:13:09;3.80;99.90
11991;DHT22;6055;52.522;13.446;2023-04-06T04:15:37;3.80;99.90
11991;DHT22;6055;52.522;13.446;2023-04-06T04:18:02;3.80;99.90
11991;DHT22;6055;52.522;13.446;2023-04-06T04:20:28;3.80;99.90
11991;DHT22;6055;52.522;13.446;2023-04-06T04:22:53;3.80;99.90
11991;DHT22;6055;52.522;13.446;2023-04-06T04:25:19;3.70;99.90
11991;DHT22;6055;52.522;13.446;2023-04-06T04:27:44;3.70;99.90
11991;DHT22;6055;52.522;13.446;2023-04-06T04:30:10;3.70;99.90
11991;DHT22;6055;52.522;13.446;2023-04-06T04:32:35;3.70;99.90
11991;DHT22;6055;52.522;13.446;2023-04-06T04:35:01;3.70;99.90
11991;DHT22;6055;52.522;13.446;2023-04-06T04:37:27;3.70;99.90
11991;DHT22;6055;52.522;13.446;2023-04-06T04:39:52;3.70;99.90
11991;DHT22;6055;52.522;13.446;2023-04-06T04:42:17;3.60;99.90
11991;DHT22;6055;52.522;13.446;2023-04-06T04:44:43;3.60;99.90
11991;DHT22;6055;52.522;13.446;2023-04-06T04:47:08;3.70;99.90
11991;DHT22;6055;52.522;13.446;2023-04-06T04:49:34;3.70;99.90
11991;DHT22;6055;52.522;13.446;2023-04-06T04:51:59;3.60;99.90
11991;DHT22;6055;52.522;13.446;2023-04-06T04:54:25;3.60;99.90
11991;DHT22;6055;52.522;13.446;2023-04-06T04:56:50;3.60;99.90
11991;DHT22;6055;52.522;13.446;2023-04-06T04:59:16;3.60;99.90
11991;DHT22;6055;52.522;13.446;2023-04-06T05:01:42;3.60;99.90
11991;DHT22;6055;52.522;13.446;2023-04-06T05:04:07;3.60;99.90
11991;DHT22;6055;52.522;13.446;2023-04-06T05:06:33;3.50;99.90
11991;DHT22;6055;52.522;13.446;2023-04-06T05:08:58;3.50;99.90
11991;DHT22;6055;52.522;13.446;2023-04-06T05:11:24;3.60;99.90
11991;DHT22;6055;52.522;13.446;2023-04-06T05:13:50;3.60;99.90
11991;DHT22;6055;52.522;13.446;2023-04-06T05:16:16;3.60;99.90
11991;DHT22;6055;52.522;13.446;2023-04-06T05:18:41;3.60;99.90
11991;DHT22;6055;52.522;13.446;2023-04-06T05:21:07;3.60;99.90
11991;DHT22;6055;52.522;13.446;2023-04-06T05:23:33;3.70;99.90
11991;DHT22;6055;52.522;13.446;2023-04-06T05:25:58;3.70;99.90
11991;DHT22;6055;52.522;13.446;2023-04-06T05:28:24;3.70;99.90
11991;DHT22;6055;52.522;13.446;2023-04-06T05:30:49;3.70;99.90
11991;DHT22;6055;52.522;13.446;2023-04-06T05:33:15;3.70;99.90
11991;DHT22;6055;52.522;13.446;2023-04-06T05:35:40;3.70;99.90
11991;DHT22;6055;52.522;13.446;2023-04-06T05:38:08;3.70;99.90
11991;DHT22;6055;52.522;13.446;2023-04-06T05:40:35;3.80;99.90
11991;DHT22;6055;52.522;13.446;2023-04-06T05:43:02;3.80;99.90
11991;DHT22;6055;52.522;13.446;2023-04-06T05:45:27;3.90;99.90
11991;DHT22;6055;52.522;13.446;2023-04-06T05:47:53;3.90;99.90
11991;DHT22;6055;52.522;13.446;2023-04-06T05:50:18;3.90;99.90
11991;DHT22;6055;52.522;13.446;2023-04-06T05:52:44;3.90;99.90
11991;DHT22;6055;52.522;13.446;2023-04-06T05:55:11;4.00;99.90
11991;DHT22;6055;52.522;13.446;2023-04-06T05:57:37;4.00;99.90
11991;DHT22;6055;52.522;13.446;2023-04-06T06:00:03;4.00;99.90
11991;DHT22;6055;52.522;13.446;2023-04-06T06:02:30;4.00;99.90
11991;DHT22;6055;52.522;13.446;2023-04-06T06:04:56;4.00;99.90
11991;DHT22;6055;52.522;13.446;2023-04-06T06:07:23;4.00;99.90
11991;DHT22;6055;52.522;13.446;2023-04-06T06:09:48;4.00;99.90
11991;DHT22;6055;52.522;13.446;2023-04-06T06:12:13;4.10;99.90
11991;DHT22;6055;52.522;13.446;2023-04-06T06:14:39;4.10;99.90
11991;DHT22;6055;52.522;13.446;2023-04-06T06:17:05;4.10;99.90
11991;DHT22;6055;52.522;13.446;2023-04-06T06:19:30;4.10;99.90
11991;DHT22;6055;52.522;13.446;2023-04-06T06:21:55;4.10;99.90
11991;DHT22;6055;52.522;13.446;2023-04-06T06:24:21;4.20;99.90
11991;DHT22;6055;52.522;13.446;2023-04-06T06:26:46;4.20;99.90
11991;DHT22;6055;52.522;13.446;2023-04-06T06:29:14;4.20;99.90
11991;DHT22;6055;52.522;13.446;2023-04-06T06:31:40;4.30;99.90
11991;DHT22;6055;52.522;13.446;2023-04-06T06:34:05;4.30;99.90
11991;DHT22;6055;52.522;13.446;2023-04-06T06:36:31;4.40;99.90
11991;DHT22;6055;52.522;13.446;2023-04-06T06:38:57;4.40;99.90
11991;DHT22;6055;52.522;13.446;2023-04-06T06:41:24;4.40;99.90
11991;DHT22;6055;52.522;13.446;2023-04-06T06:43:50;4.40;99.90
11991;DHT22;6055;52.522;13.446;2023-04-06T06:46:15;4.40;99.90
11991;DHT22;6055;52.522;13.446;2023-04-06T06:48:41;4.50;99.90
11991;DHT22;6055;52.522;13.446;2023-04-06T06:51:06;4.50;99.90
11991;DHT22;6055;52.522;13.446;2023-04-06T06:53:32;4.60;99.90
11991;DHT22;6055;52.522;13.446;2023-04-06T06:55:57;4.70;99.90
11991;DHT22;6055;52.522;13.446;2023-04-06T06:58:23;4.70;99.90
11991;DHT22;6055;52.522;13.446;2023-04-06T07:00:48;4.70;99.90
11991;DHT22;6055;52.522;13.446;2023-04-06T07:03:14;4.70;99.90
11991;DHT22;6055;52.522;13.446;2023-04-06T07:05:45;4.80;99.90
11991;DHT22;6055;52.522;13.446;2023-04-06T07:08:15;4.80;99.90
11991;DHT22;6055;52.522;13.446;2023-04-06T07:10:41;4.90;99.90
11991;DHT22;6055;52.522;13.446;2023-04-06T07:13:06;5.00;99.90
11991;DHT22;6055;52.522;13.446;2023-04-06T07:15:32;5.00;99.90
11991;DHT22;6055;52.522;13.446;2023-04-06T07:17:57;5.10;99.90
11991;DHT22;6055;52.522;13.446;2023-04-06T07:20:24;5.10;99.90
11991;DHT22;6055;52.522;13.446;2023-04-06T07:22:50;5.20;99.90
11991;DHT22;6055;52.522;13.446;2023-04-06T07:25:15;5.30;99.90
11991;DHT22;6055;52.522;13.446;2023-04-06T07:27:41;5.30;99.90
11991;DHT22;6055;52.522;13.446;2023-04-06T07:30:07;5.30;99.90
11991;DHT22;6055;52.522;13.446;2023-04-06T07:32:32;5.40;99.90
11991;DHT22;6055;52.522;13.446;2023-04-06T07:34:59;5.40;99.90
11991;DHT22;6055;52.522;13.446;2023-04-06T07:37:26;5.50;99.90
11991;DHT22;6055;52.522;13.446;2023-04-06T07:39:51;5.50;99.90
11991;DHT22;6055;52.522;13.446;2023-04-06T07:42:17;5.60;99.90
11991;DHT22;6055;52.522;13.446;2023-04-06T07:44:42;5.70;99.90
11991;DHT22;6055;52.522;13.446;2023-04-06T07:47:08;5.70;99.90
11991;DHT22;6055;52.522;13.446;2023-04-06T07:49:33;5.80;99.90
11991;DHT22;6055;52.522;13.446;2023-04-06T07:51:58;5.80;99.90
11991;DHT22;6055;52.522;13.446;2023-04-06T07:54:24;5.90;99.90
11991;DHT22;6055;52.522;13.446;2023-04-06T07:56:50;5.90;99.90
11991;DHT22;6055;52.522;13.446;2023-04-06T07:59:15;6.00;99.90
11991;DHT22;6055;52.522;13.446;2023-04-06T08:01:41;6.00;99.90
11991;DHT22;6055;52.522;13.446;2023-04-06T08:04:07;6.10;99.90
11991;DHT22;6055;52.522;13.446;2023-04-06T08:06:32;6.10;99.90
11991;DHT22;6055;52.522;13.446;2023-04-06T08:08:58;6.20;99.90
11991;DHT22;6055;52.522;13.446;2023-04-06T08:11:23;6.20;99.90
11991;DHT22;6055;52.522;13.446;2023-04-06T08:13:49;6.30;99.90
11991;DHT22;6055;52.522;13.446;2023-04-06T08:16:14;6.30;99.90
11991;DHT22;6055;52.522;13.446;2023-04-06T08:18:40;6.40;99.90
11991;DHT22;6055;52.522;13.446;2023-04-06T08:21:06;6.50;99.80
11991;DHT22;6055;52.522;13.446;2023-04-06T08:23:31;6.60;99.50
11991;DHT22;6055;52.522;13.446;2023-04-06T08:25:57;6.60;99.30
11991;DHT22;6055;52.522;13.446;2023-04-06T08:28:22;6.70;99.20
11991;DHT22;6055;52.522;13.446;2023-04-06T08:30:48;6.70;99.00
11991;DHT22;6055;52.522;13.446;2023-04-06T08:33:13;6.80;98.80
11991;DHT22;6055;52.522;13.446;2023-04-06T08:35:39;6.90;98.40
11991;DHT22;6055;52.522;13.446;2023-04-06T08:38:04;6.90;97.70
11991;DHT22;6055;52.522;13.446;2023-04-06T08:40:39;6.90;97.60
11991;DHT22;6055;52.522;13.446;2023-04-06T08:43:07;6.90;96.70
11991;DHT22;6055;52.522;13.446;2023-04-06T08:45:34;7.00;96.50
11991;DHT22;6055;52.522;13.446;2023-04-06T08:47:59;7.00;96.50
11991;DHT22;6055;52.522;13.446;2023-04-06T08:50:29;7.10;95.80
11991;DHT22;6055;52.522;13.446;2023-04-06T08:52:55;7.10;95.70
11991;DHT22;6055;52.522;13.446;2023-04-06T08:55:21;7.20;95.70
11991;DHT22;6055;52.522;13.446;2023-04-06T08:57:47;7.30;95.20
11991;DHT22;6055;52.522;13.446;2023-04-06T09:00:14;7.30;95.10
11991;DHT22;6055;52.522;13.446;2023-04-06T09:02:42;7.40;95.00
11991;DHT22;6055;52.522;13.446;2023-04-06T09:05:09;7.50;94.70
11991;DHT22;6055;52.522;13.446;2023-04-06T09:07:36;7.60;94.30
11991;DHT22;6055;52.522;13.446;2023-04-06T09:10:03;7.70;93.60
11991;DHT22;6055;52.522;13.446;2023-04-06T09:12:30;7.70;93.40
11991;DHT22;6055;52.522;13.446;2023-04-06T09:14:57;7.80;92.90
11991;DHT22;6055;52.522;13.446;2023-04-06T09:17:30;7.80;93.00
11991;DHT22;6055;52.522;13.446;2023-04-06T09:19:58;8.10;93.00
11991;DHT22;6055;52.522;13.446;2023-04-06T09:22:24;8.50;92.30
11991;DHT22;6055;52.522;13.446;2023-04-06T09:24:53;8.80;91.60
11991;DHT22;6055;52.522;13.446;2023-04-06T09:27:33;9.00;91.30
11991;DHT22;6055;52.522;13.446;2023-04-06T09:30:07;9.00;91.40
11991;DHT22;6055;52.522;13.446;2023-04-06T09:32:43;9.10;90.80
11991;DHT22;6055;52.522;13.446;2023-04-06T09:35:10;9.30;90.20
11991;DHT22;6055;52.522;13.446;2023-04-06T09:37:35;9.50;90.20
11991;DHT22;6055;52.522;13.446;2023-04-06T09:40:05;9.90;89.50
11991;DHT22;6055;52.522;13.446;2023-04-06T09:42:31;10.00;88.10
11991;DHT22;6055;52.522;13.446;2023-04-06T09:44:56;10.00;86.40
11991;DHT22;6055;52.522;13.446;2023-04-06T09:47:22;10.10;86.10
11991;DHT22;6055;52.522;13.446;2023-04-06T09:49:50;10.50;86.40
11991;DHT22;6055;52.522;13.446;2023-04-06T09:52:21;10.80;85.60
11991;DHT22;6055;52.522;13.446;2023-04-06T09:54:50;11.10;84.70
11991;DHT22;6055;52.522;13.446;2023-04-06T09:57:25;11.30;82.20
11991;DHT22;6055;52.522;13.446;2023-04-06T10:00:01;11.40;78.70
11991;DHT22;6055;52.522;13.446;2023-04-06T10:02:56;11.40;76.40
11991;DHT22;6055;52.522;13.446;2023-04-06T10:05:44;10.90;76.80
11991;DHT22;6055;52.522;13.446;2023-04-06T10:08:12;10.60;79.40
11991;DHT22;6055;52.522;13.446;2023-04-06T10:10:38;10.60;80.60
11991;DHT22;6055;52.522;13.446;2023-04-06T10:13:04;10.40;81.60
11991;DHT22;6055;52.522;13.446;2023-04-06T10:15:31;10.20;81.10
11991;DHT22;6055;52.522;13.446;2023-04-06T10:18:00;10.20;80.60
11991;DHT22;6055;52.522;13.446;2023-04-06T10:20:40;10.30;80.00
11991;DHT22;6055;52.522;13.446;2023-04-06T10:23:15;10.40;78.00
11991;DHT22;6055;52.522;13.446;2023-04-06T10:25:59;10.30;77.40
11991;DHT22;6055;52.522;13.446;2023-04-06T10:28:25;10.20;78.60
11991;DHT22;6055;52.522;13.446;2023-04-06T10:30:59;10.60;79.90
11991;DHT22;6055;52.522;13.446;2023-04-06T10:33:25;11.20;77.60
11991;DHT22;6055;52.522;13.446;2023-04-06T10:35:51;11.70;75.80
11991;DHT22;6055;52.522;13.446;2023-04-06T10:38:16;12.30;75.60
11991;DHT22;6055;52.522;13.446;2023-04-06T10:40:46;12.60;73.30
11991;DHT22;6055;52.522;13.446;2023-04-06T10:43:21;13.10;71.20
11991;DHT22;6055;52.522;13.446;2023-04-06T10:45:57;13.40;69.80
11991;DHT22;6055;52.522;13.446;2023-04-06T10:48:24;13.20;69.20
11991;DHT22;6055;52.522;13.446;2023-04-06T10:50:54;13.20;69.60
11991;DHT22;6055;52.522;13.446;2023-04-06T10:53:29;13.60;68.40
11991;DHT22;6055;52.522;13.446;2023-04-06T10:55:56;14.00;68.40
11991;DHT22;6055;52.522;13.446;2023-04-06T10:58:25;14.20;66.30
11991;DHT22;6055;52.522;13.446;2023-04-06T11:00:51;14.70;65.90
11991;DHT22;6055;52.522;13.446;2023-04-06T11:03:17;14.70;63.70
11991;DHT22;6055;52.522;13.446;2023-04-06T11:05:50;15.00;63.30
11991;DHT22;6055;52.522;13.446;2023-04-06T11:08:30;15.60;64.60
11991;DHT22;6055;52.522;13.446;2023-04-06T11:11:10;16.80;62.70
11991;DHT22;6055;52.522;13.446;2023-04-06T11:13:41;18.10;58.90
11991;DHT22;6055;52.522;13.446;2023-04-06T11:16:07;19.10;57.60
11991;DHT22;6055;52.522;13.446;2023-04-06T11:18:37;19.90;54.60
11991;DHT22;6055;52.522;13.446;2023-04-06T11:21:02;20.80;51.00
11991;DHT22;6055;52.522;13.446;2023-04-06T11:23:28;20.40;48.10
11991;DHT22;6055;52.522;13.446;2023-04-06T11:25:53;19.40;47.10
11991;DHT22;6055;52.522;13.446;2023-04-06T11:28:20;18.90;48.30
11991;DHT22;6055;52.522;13.446;2023-04-06T11:30:45;19.40;48.10
11991;DHT22;6055;52.522;13.446;2023-04-06T11:33:20;20.30;45.70
11991;DHT22;6055;52.522;13.446;2023-04-06T11:35:46;20.70;44.90
11991;DHT22;6055;52.522;13.446;2023-04-06T11:38:12;21.10;43.50
11991;DHT22;6055;52.522;13.446;2023-04-06T11:40:37;21.50;42.00
11991;DHT22;6055;52.522;13.446;2023-04-06T11:43:04;21.20;41.50
11991;DHT22;6055;52.522;13.446;2023-04-06T11:45:40;21.50;42.40
11991;DHT22;6055;52.522;13.446;2023-04-06T11:48:18;21.40;40.10
11991;DHT22;6055;52.522;13.446;2023-04-06T11:50:46;21.10;39.90
11991;DHT22;6055;52.522;13.446;2023-04-06T11:53:13;21.10;39.20
11991;DHT22;6055;52.522;13.446;2023-04-06T11:55:38;21.30;39.60
11991;DHT22;6055;52.522;13.446;2023-04-06T11:58:04;21.20;39.70
11991;DHT22;6055;52.522;13.446;2023-04-06T12:00:29;21.20;39.40
11991;DHT22;6055;52.522;13.446;2023-04-06T12:02:59;20.50;38.20
11991;DHT22;6055;52.522;13.446;2023-04-06T12:05:25;19.40;38.40
11991;DHT22;6055;52.522;13.446;2023-04-06T12:07:50;18.40;40.40
11991;DHT22;6055;52.522;13.446;2023-04-06T12:10:16;18.20;41.20
11991;DHT22;6055;52.522;13.446;2023-04-06T12:12:41;17.90;41.90
11991;DHT22;6055;52.522;13.446;2023-04-06T12:15:07;17.50;42.90
11991;DHT22;6055;52.522;13.446;2023-04-06T12:17:33;17.80;44.00
11991;DHT22;6055;52.522;13.446;2023-04-06T12:19:58;18.50;44.50
11991;DHT22;6055;52.522;13.446;2023-04-06T12:22:24;19.30;43.20
11991;DHT22;6055;52.522;13.446;2023-04-06T12:24:49;20.00;41.70
11991;DHT22;6055;52.522;13.446;2023-04-06T12:27:15;20.70;40.10
11991;DHT22;6055;52.522;13.446;2023-04-06T12:29:40;21.00;39.20
11991;DHT22;6055;52.522;13.446;2023-04-06T12:32:06;20.70;38.20
11991;DHT22;6055;52.522;13.446;2023-04-06T12:34:31;20.70;38.60
11991;DHT22;6055;52.522;13.446;2023-04-06T12:36:57;21.00;38.70
11991;DHT22;6055;52.522;13.446;2023-04-06T12:39:23;20.90;38.40
11991;DHT22;6055;52.522;13.446;2023-04-06T12:41:49;20.60;38.70
11991;DHT22;6055;52.522;13.446;2023-04-06T12:44:14;20.10;39.20
11991;DHT22;6055;52.522;13.446;2023-04-06T12:46:40;19.80;40.40
11991;DHT22;6055;52.522;13.446;2023-04-06T12:49:05;19.20;40.70
11991;DHT22;6055;52.522;13.446;2023-04-06T12:51:31;18.90;41.80
11991;DHT22;6055;52.522;13.446;2023-04-06T12:53:57;19.40;40.20
11991;DHT22;6055;52.522;13.446;2023-04-06T12:56:22;20.00;40.20
11991;DHT22;6055;52.522;13.446;2023-04-06T12:58:49;20.60;38.70
11991;DHT22;6055;52.522;13.446;2023-04-06T13:01:15;20.90;38.90
11991;DHT22;6055;52.522;13.446;2023-04-06T13:03:41;21.30;39.10
11991;DHT22;6055;52.522;13.446;2023-04-06T13:06:07;21.50;38.50
11991;DHT22;6055;52.522;13.446;2023-04-06T13:08:36;21.90;37.30
11991;DHT22;6055;52.522;13.446;2023-04-06T13:11:03;21.40;37.30
11991;DHT22;6055;52.522;13.446;2023-04-06T13:13:29;21.10;37.90
11991;DHT22;6055;52.522;13.446;2023-04-06T13:16:02;20.90;39.40
11991;DHT22;6055;52.522;13.446;2023-04-06T13:18:29;20.90;39.20
11991;DHT22;6055;52.522;13.446;2023-04-06T13:20:56;20.80;38.50
11991;DHT22;6055;52.522;13.446;2023-04-06T13:23:25;20.50;38.40
11991;DHT22;6055;52.522;13.446;2023-04-06T13:26:01;20.40;39.30
11991;DHT22;6055;52.522;13.446;2023-04-06T13:28:28;20.40;37.90
11991;DHT22;6055;52.522;13.446;2023-04-06T13:30:54;19.90;38.10
11991;DHT22;6055;52.522;13.446;2023-04-06T13:33:20;19.10;38.50
11991;DHT22;6055;52.522;13.446;2023-04-06T13:35:46;18.30;40.30
11991;DHT22;6055;52.522;13.446;2023-04-06T13:38:12;17.50;42.10
11991;DHT22;6055;52.522;13.446;2023-04-06T13:40:41;17.00;42.00
11991;DHT22;6055;52.522;13.446;2023-04-06T13:43:06;16.60;42.90
11991;DHT22;6055;52.522;13.446;2023-04-06T13:45:32;16.60;42.80
11991;DHT22;6055;52.522;13.446;2023-04-06T13:47:58;16.80;43.40
11991;DHT22;6055;52.522;13.446;2023-04-06T13:50:26;17.10;43.20
11991;DHT22;6055;52.522;13.446;2023-04-06T13:52:51;17.30;43.70
11991;DHT22;6055;52.522;13.446;2023-04-06T13:55:17;17.60;42.40
11991;DHT22;6055;52.522;13.446;2023-04-06T13:57:42;17.70;43.20
11991;DHT22;6055;52.522;13.446;2023-04-06T14:00:08;17.80;42.20
11991;DHT22;6055;52.522;13.446;2023-04-06T14:02:35;18.00;42.60
11991;DHT22;6055;52.522;13.446;2023-04-06T14:05:01;18.00;41.70
11991;DHT22;6055;52.522;13.446;2023-04-06T14:07:26;17.70;40.80
11991;DHT22;6055;52.522;13.446;2023-04-06T14:09:52;17.40;42.70
11991;DHT22;6055;52.522;13.446;2023-04-06T14:12:17;17.10;42.60
11991;DHT22;6055;52.522;13.446;2023-04-06T14:14:43;16.80;43.00
11991;DHT22;6055;52.522;13.446;2023-04-06T14:17:08;16.70;43.00
11991;DHT22;6055;52.522;13.446;2023-04-06T14:19:34;16.50;43.40
11991;DHT22;6055;52.522;13.446;2023-04-06T14:21:59;16.50;44.00
11991;DHT22;6055;52.522;13.446;2023-04-06T14:24:25;16.70;42.90
11991;DHT22;6055;52.522;13.446;2023-04-06T14:26:50;16.90;44.50
11991;DHT22;6055;52.522;13.446;2023-04-06T14:29:16;17.10;43.10
11991;DHT22;6055;52.522;13.446;2023-04-06T14:31:41;17.10;44.30
11991;DHT22;6055;52.522;13.446;2023-04-06T14:34:07;17.20;43.90
11991;DHT22;6055;52.522;13.446;2023-04-06T14:36:33;17.40;43.40
11991;DHT22;6055;52.522;13.446;2023-04-06T14:39:06;17.40;42.80
11991;DHT22;6055;52.522;13.446;2023-04-06T14:41:35;17.50;42.30
11991;DHT22;6055;52.522;13.446;2023-04-06T14:44:01;17.50;41.90
11991;DHT22;6055;52.522;13.446;2023-04-06T14:46:27;17.40;41.80
11991;DHT22;6055;52.522;13.446;2023-04-06T14:48:59;17.40;42.60
11991;DHT22;6055;52.522;13.446;2023-04-06T14:51:25;17.30;42.60
11991;DHT22;6055;52.522;13.446;2023-04-06T14:53:52;17.00;41.50
11991;DHT22;6055;52.522;13.446;2023-04-06T14:56:22;17.00;41.90
11991;DHT22;6055;52.522;13.446;2023-04-06T14:58:48;16.80;42.50
11991;DHT22;6055;52.522;13.446;2023-04-06T15:01:14;16.70;43.50
11991;DHT22;6055;52.522;13.446;2023-04-06T15:03:39;16.80;43.30
11991;DHT22;6055;52.522;13.446;2023-04-06T15:06:06;16.80;42.80
11991;DHT22;6055;52.522;13.446;2023-04-06T15:08:38;16.90;42.70
11991;DHT22;6055;52.522;13.446;2023-04-06T15:11:03;16.80;42.80
11991;DHT22;6055;52.522;13.446;2023-04-06T15:13:29;16.50;43.40
11991;DHT22;6055;52.522;13.446;2023-04-06T15:15:54;16.30;43.90
11991;DHT22;6055;52.522;13.446;2023-04-06T15:18:20;16.20;44.20
11991;DHT22;6055;52.522;13.446;2023-04-06T15:20:45;16.30;44.40
11991;DHT22;6055;52.522;13.446;2023-04-06T15:23:11;16.30;43.20
11991;DHT22;6055;52.522;13.446;2023-04-06T15:25:36;16.10;43.30
11991;DHT22;6055;52.522;13.446;2023-04-06T15:28:06;16.20;43.60
11991;DHT22;6055;52.522;13.446;2023-04-06T15:30:31;15.90;42.60
11991;DHT22;6055;52.522;13.446;2023-04-06T15:33:01;16.10;42.80
11991;DHT22;6055;52.522;13.446;2023-04-06T15:35:27;16.20;43.40